• Join FlightAware (Why Join?)
  • Login
  • US Flag 
08:21AM EDT


 

Airport Tracker/Info


-or-


 

Live Flight TrackerFlight Track Log ✈ N143DE ✈ 24-Oct-2013 ✈ KDAL - KAPA

Flight Track Log - Related Links

Times and Time Zones

All times are in EDT time to prevent confusion due to time zone crossing. See the N143DE flight status page for this flight to view local times or setup timezone preferences in your user account.

Time Position Orientation Groundspeed Altitude Reporting Facility
EDT Latitude Longitude Course Direction KTS MPH feet Rate Location/Type
09:27AM 32.8667 -96.8500 337° Northwest 110 127 1,400  Level Dallas / Fort Worth TRACON
09:28AM 32.9000 -96.8667 337° Northwest 177 204 2,200 1,380 Climbing Dallas / Fort Worth TRACON
09:29AM 32.9333 -96.8500 23° Northeast 173 199 3,800 900 Climbing Dallas / Fort Worth TRACON
09:30AM 32.9833 -96.8333 16° North 219 252 4,000 60 Climbing Dallas / Fort Worth TRACON
09:31AM 33.0333 -96.8167 16° North 224 258 4,000  Level Dallas / Fort Worth TRACON
09:32AM 33.1000 -96.8167 360° North 215 247 4,000 360 Level Dallas / Fort Worth TRACON
09:32AM 33.1347 -96.8356 336° Northwest 212 244 4,600 1,200 Climbing Fort Worth Center
09:33AM 33.1869 -96.8450 351° North 217 250 6,000 1,500 Climbing Fort Worth Center
09:34AM 33.2475 -96.8594 349° North 212 244 7,700 1,500 Climbing Fort Worth Center
09:35AM 33.2978 -96.8767 344° North 196 226 9,000 1,260 Climbing Fort Worth Center
09:36AM 33.3583 -96.8936 347° North 201 231 10,300 1,200 Climbing Fort Worth Center
09:37AM 33.4086 -96.9108 344° North 206 237 11,500 1,500 Climbing Fort Worth Center
09:38AM 33.4711 -96.9303 345° North 206 237 13,300 1,560 Climbing Fort Worth Center
09:39AM 33.5150 -96.9450 344° North 190 219 14,700 1,500 Climbing Fort Worth Center
09:40AM 33.5694 -96.9622 353° North 184 212 16,300 1,200 Climbing Fort Worth Center
09:41AM 33.6133 -96.9769 344° North 184 212 17,200 900 Climbing Fort Worth Center
09:42AM 33.6697 -96.9942 346° North 184 212 18,200 960 Climbing Fort Worth Center
09:43AM 33.7114 -97.0089 344° North 184 212 19,200 900 Climbing Fort Worth Center
09:44AM 33.7658 -97.0236 347° North 184 212 20,100 720 Climbing Fort Worth Center
09:45AM 33.8117 -97.0411 342° North 184 212 20,700 660 Climbing Fort Worth Center
09:46AM 33.8639 -97.0558 347° North 184 212 21,500 720 Climbing Fort Worth Center
09:47AM 33.9142 -97.0731 344° North 184 212 22,200 660 Climbing Fort Worth Center
09:48AM 33.9642 -97.0881 346° North 184 212 22,900 600 Climbing Fort Worth Center
09:49AM 34.0164 -97.1028 347° North 184 212 23,500 600 Climbing Fort Worth Center
09:50AM 34.0667 -97.1228 342° North 184 212 24,200 720 Climbing Fort Worth Center
09:51AM 34.1189 -97.1375 347° North 184 212 25,000 780 Climbing Fort Worth Center
09:52AM 34.1669 -97.1525 346° North 184 212 25,800 540 Climbing Fort Worth Center
09:53AM 34.2189 -97.1675 347° North 184 212 26,100 60 Climbing Fort Worth Center
09:54AM 34.2753 -97.1872 344° North 195 224 26,000 -60 Descending Fort Worth Center
09:55AM 34.3400 -97.2072 346° North 211 243 26,000  Level Fort Worth Center
09:56AM 34.4028 -97.2272 345° North 223 257 26,000  Level Fort Worth Center
09:57AM 34.4486 -97.2775 318° Northwest 220 253 26,000  Level Fort Worth Center
09:58AM 34.4906 -97.3431 308° West 225 259 26,000  Level Fort Worth Center
09:59AM 34.5342 -97.3958 315° West 225 259 26,000  Level Fort Worth Center
10:00AM 34.5781 -97.4539 313° West 225 259 26,000  Level Fort Worth Center
10:01AM 34.6197 -97.5169 309° West 230 265 26,000  Level Fort Worth Center
10:02AM 34.6697 -97.5775 315° West 235 270 26,000  Level Fort Worth Center
10:03AM 34.7156 -97.6358 314° West 235 270 26,000  Level Fort Worth Center
10:04AM 34.7572 -97.6917 312° West 235 270 26,000  Level Fort Worth Center
10:05AM 34.7989 -97.7497 311° West 235 270 26,000  Level Fort Worth Center
10:06AM 34.8425 -97.8083 312° West 240 276 26,000  Level Fort Worth Center
10:07AM 34.8861 -97.8667 312° West 235 270 26,000  Level Fort Worth Center
10:08AM 34.9275 -97.9225 312° West 235 270 26,000  Level Fort Worth Center
10:09AM 34.9711 -97.9811 312° West 235 270 26,000  Level Fort Worth Center
10:10AM 35.0125 -98.0397 311° West 235 270 26,000  Level Fort Worth Center
10:11AM 35.0539 -98.0983 311° West 235 270 26,000  Level Fort Worth Center
10:12AM 35.0975 -98.1544 314° West 235 270 26,000  Level Fort Worth Center
10:13AM 35.1389 -98.2133 311° West 235 270 26,000  Level Fort Worth Center
10:14AM 35.1842 -98.2722 313° West 235 270 26,000  Level Fort Worth Center
10:15AM 35.2233 -98.3308 309° West 235 270 26,000  Level Fort Worth Center
10:16AM 35.2669 -98.3900 312° West 235 270 26,000  Level Fort Worth Center
10:17AM 35.3103 -98.4489 312° West 235 270 26,000  Level Fort Worth Center
10:18AM 35.3514 -98.5081 310° West 235 270 26,000  Level Fort Worth Center
10:19AM 35.3947 -98.5647 313° West 235 270 26,000  Level Fort Worth Center
10:20AM 35.4358 -98.6239 310° West 235 270 26,000  Level Fort Worth Center
10:21AM 35.4750 -98.6753 313° West 234 269 26,000  Level Fort Worth Center
10:23AM 35.5458 -98.7783 310° West 225 259 26,000  Level Kansas City Center
10:24AM 35.5867 -98.8361 311° West 223 257 26,000  Level Kansas City Center
10:25AM 35.6281 -98.8944 311° West 225 259 26,000  Level Kansas City Center
10:26AM 35.6706 -98.9514 313° West 225 259 26,000  Level Kansas City Center
10:27AM 35.7119 -99.0092 311° West 224 258 26,000  Level Kansas City Center
10:28AM 35.7531 -99.0672 311° West 223 257 26,000  Level Kansas City Center
10:29AM 35.8003 -99.1372 310° West 221 254 26,000  Level Kansas City Center
10:30AM 35.8428 -99.1944 313° West 222 255 26,000  Level Kansas City Center
10:31AM 35.8839 -99.2531 311° West 223 257 26,000  Level Kansas City Center
10:32AM 35.9253 -99.3122 311° West 223 257 26,000  Level Kansas City Center
10:33AM 35.9678 -99.3703 312° West 224 258 26,000  Level Kansas City Center
10:34AM 36.0092 -99.4300 311° West 225 259 26,000  Level Kansas City Center
10:35AM 36.0511 -99.4875 312° West 224 258 26,000  Level Kansas City Center
10:36AM 36.0922 -99.5456 311° West 224 258 26,000  Level Kansas City Center
10:37AM 36.1347 -99.6042 312° West 225 259 26,000  Level Kansas City Center
10:38AM 36.1839 -99.6750 311° West 225 259 26,000  Level Kansas City Center
10:39AM 36.2239 -99.7353 309° West 225 259 26,000  Level Kansas City Center
10:41AM 36.2672 -99.7931 313° West 226 260 26,000  Level Kansas City Center
10:42AM 36.3083 -99.8519 311° West 226 260 26,000  Level Kansas City Center
10:43AM 36.3494 -99.9125 310° West 228 262 26,000  Level Kansas City Center
10:44AM 36.3925 -99.9719 312° West 229 264 26,000  Level Kansas City Center
10:45AM 36.4342 -100.0319 311° West 229 264 26,000  Level Kansas City Center
10:46AM 36.4833 -100.1058 310° West 231 266 26,000  Level Kansas City Center
10:47AM 36.5261 -100.1653 312° West 230 265 26,000  Level Kansas City Center
10:48AM 36.5678 -100.2267 310° West 231 266 26,000  Level Kansas City Center
10:49AM 36.6094 -100.2867 311° West 229 264 26,000  Level Kansas City Center
10:50AM 36.6517 -100.3489 310° West 233 268 26,000  Level Kansas City Center
10:51AM 36.6972 -100.4150 311° West 232 267 26,000  Level Kansas City Center
10:52AM 36.7375 -100.4733 311° West 232 267 26,000  Level Kansas City Center
10:53AM 36.7839 -100.5417 310° West 231 266 26,000  Level Kansas City Center
10:54AM 36.8250 -100.6006 311° West 234 269 26,000  Level Kansas City Center
10:55AM 36.8703 -100.6697 309° West 231 266 26,000  Level Kansas City Center
10:56AM 36.9111 -100.7289 311° West 233 268 26,000  Level Kansas City Center
10:57AM 36.9567 -100.7986 309° West 232 267 26,000  Level Kansas City Center
10:58AM 36.9964 -100.8583 310° West 233 268 26,000  Level Kansas City Center
10:59AM 37.0436 -100.9275 311° West 233 268 26,000  Level Kansas City Center
11:00AM 37.0842 -100.9864 311° West 234 269 26,000  Level Kansas City Center
11:01AM 37.1294 -101.0572 309° West 233 268 26,000  Level Kansas City Center
11:02AM 37.1717 -101.1161 312° West 235 270 26,000  Level Kansas City Center
11:03AM 37.2175 -101.1886 308° West 236 272 26,000  Level Kansas City Center
11:04AM 37.2578 -101.2475 311° West 234 269 26,000  Level Kansas City Center
11:05AM 37.2975 -101.3081 310° West 234 269 26,000  Level Kansas City Center
11:06AM 37.3444 -101.3786 310° West 234 269 26,000  Level Kansas City Center
11:07AM 37.3850 -101.4397 310° West 236 272 26,000  Level Kansas City Center
11:08AM 37.4319 -101.5111 310° West 236 272 26,000  Level Kansas City Center
11:09AM 37.4725 -101.5714 310° West 236 272 26,000  Level Kansas City Center
11:10AM 37.5197 -101.6431 310° West 236 272 26,000  Level Kansas City Center
11:12AM 37.5606 -101.7047 310° West 239 275 26,000  Level Kansas City Center
11:13AM 37.6075 -101.7775 309° West 239 275 26,000  Level Kansas City Center
11:14AM 37.6481 -101.8386 310° West 238 274 26,100  Climbing Kansas City Center
11:15AM 37.6958 -101.9119 309° West 240 276 26,100 -60 Level Kansas City Center
11:16AM 37.7361 -101.9739 309° West 239 275 26,000 -60 Descending Kansas City Center
11:17AM 37.7761 -102.0367 309° West 240 276 26,000  Level Kansas City Center
11:18AM 37.8256 -102.1081 311° West 241 277 26,100  Climbing Kansas City Center
11:19AM 37.8639 -102.1736 307° West 241 277 26,100  Level Kansas City Center
11:20AM 37.9139 -102.2442 312° West 240 276 26,100  Level Kansas City Center
11:21AM 37.9528 -102.3081 308° West 239 275 26,100  Level Kansas City Center
11:22AM 38.0008 -102.3811 310° West 241 277 26,100  Level Kansas City Center
11:23AM 38.0406 -102.4447 308° West 240 276 26,100  Level Kansas City Center
11:24AM 38.0894 -102.5172 311° West 241 277 26,100  Level Kansas City Center
11:25AM 38.1433 -102.6025 309° West 241 277 26,100  Level Denver Center
11:26AM 38.1906 -102.6753 310° West 239 275 26,100  Level Denver Center
11:27AM 38.2297 -102.7400 308° West 242 278 26,100  Level Denver Center
11:28AM 38.2819 -102.8114 313° West 244 281 26,100  Level Denver Center
11:29AM 38.3219 -102.8758 308° West 245 282 26,100  Level Denver Center
11:30AM 38.3703 -102.9478 311° West 238 274 26,100  Level Denver Center
11:32AM 38.4136 -103.0111 311° West 245 282 26,100  Level Denver Center
11:33AM 38.4547 -103.0750 309° West 244 281 26,100  Level Denver Center
11:34AM 38.5042 -103.1450 312° West 239 275 26,100  Level Denver Center
11:35AM 38.5450 -103.2103 309° West 241 277 26,100  Level Denver Center
11:36AM 38.5936 -103.2825 311° West 245 282 26,100  Level Denver Center
11:37AM 38.6383 -103.3483 311° West 247 284 26,100  Level Denver Center
11:38AM 38.6808 -103.4161 309° West 244 281 26,100  Level Denver Center
11:39AM 38.7294 -103.4889 311° West 250 288 26,100  Level Denver Center
11:40AM 38.7719 -103.5539 310° West 250 288 26,100 -120 Level Denver Center
11:41AM 38.8144 -103.6328 305° West 244 281 25,900 -540 Descending Denver Center
11:42AM 38.8222 -103.7367 276° West 268 308 25,100 -1,500 Descending Denver Center
11:43AM 38.8772 -103.7953 320° Northwest 283 326 22,800 -2,640 Descending Denver Center
11:44AM 38.9442 -103.8494 328° Northwest 287 330 19,700 -3,300 Descending Denver Center
11:45AM 39.0217 -103.9211 324° Northwest 287 330 16,000 -3,300 Descending Denver Center
11:46AM 39.0836 -103.9703 328° Northwest 269 310 13,000 -2,460 Descending Denver Center
11:47AM 39.1417 -104.0228 325° Northwest 259 298 11,000 -1,020 Descending Denver Center
11:48AM 39.1953 -104.0692 326° Northwest 241 277 10,900 -240 Descending Denver Center
11:49AM 39.2567 -104.1233 326° Northwest 246 283 10,600 -600 Descending Denver Center
11:50AM 39.3036 -104.1922 311° West 257 296 9,700 -780 Descending Denver Center
11:51AM 39.3117 -104.2881 276° West 273 314 9,000 -360 Descending Denver Center
11:52AM 39.3236 -104.3639 282° West 208 239 9,000  Level Denver Center
11:53AM 39.3328 -104.4358 279° West 203 234 9,000  Level Denver Center
11:54AM 39.3439 -104.5153 280° West 208 239 9,000  Level Denver Center
11:55AM 39.3528 -104.5872 279° West 206 237 9,000  Level Denver Center
11:56AM 39.3694 -104.6642 286° West 215 247 9,000  Level Denver Center
11:57AM 39.4128 -104.7100 321° Northwest 210 242 9,000  Level Denver Center
11:58AM 39.4506 -104.7642 312° West 205 236 9,000  Level Denver Center
11:59AM 39.4917 -104.8239 312° West 207 238 9,000  Level Denver Center
12:00PM 39.5319 -104.8786 314° West 206 237 9,000  Level Denver Center
12:01PM 39.5800 -104.9175 328° Northwest 197 227 9,000 -480 Level Denver Center
12:03PM 39.6311 -104.9039 12° North 195 224 8,100 -1,260 Descending Denver Center
12:04PM 39.6242 -104.8533 100° East 147 169 6,500 -1,020 Descending Denver Center
12:05PM 39.5908 -104.8508 177° South 120 138 6,000 -540 Descending Denver Center